Flight Track Log - Related Links

Times and Time Zones

All times are in EDT time to prevent confusion due to time zone crossing. See the SWA864 flight status page for this flight to view local times or setup timezone preferences in your user account.

Time Position Orientation Groundspeed Altitude Reporting Facility
EDT Latitude Longitude Course Direction KTS MPH feet Rate Location/Type
Sat 04:08:01 PM 40.7019 -111.9611 179° South 204 235 6,800  Level Salt Lake Center
Sat 04:09:02 PM 40.6286 -111.9606 180° South 255 293 9,800 2,715 Climbing Salt Lake Center
Sat 04:10:18 PM 40.5328 -111.9539 177° South 285 328 13,000 1,391 Climbing Salt Lake Center
Sat 04:11:20 PM 40.4539 -111.9519 179° South 282 325 13,000 629 Level Salt Lake Center
Sat 04:12:22 PM 40.3756 -111.9467 177° South 284 327 14,300 2,195 Climbing Salt Lake Center
Sat 04:13:23 PM 40.2961 -111.9442 179° South 287 330 17,500 2,780 Climbing Salt Lake Center
Sat 04:14:25 PM 40.2142 -111.9483 182° South 296 341 20,000 1,935 Climbing Salt Lake Center
Sat 04:15:27 PM 40.1261 -111.9619 187° South 328 377 21,500 1,645 Climbing Salt Lake Center
Sat 04:16:29 PM 39.9986 -111.9803 186° South 386 444 23,400 2,049 Climbing Salt Lake Center
Sat 04:17:30 PM 39.8889 -111.9972 187° South 398 458 25,700 2,000 Climbing Salt Lake Center
Sat 04:18:32 PM 39.7761 -112.0150 187° South 410 472 27,500 1,935 Climbing Salt Lake Center
Sat 04:19:34 PM 39.6628 -112.0297 186° South 411 473 29,700 2,081 Climbing Salt Lake Center
Sat 04:20:36 PM 39.5619 -112.0900 205° Southwest 401 461 31,800 1,122 Climbing Salt Lake Center
Sat 04:21:37 PM 39.4647 -112.1539 207° Southwest 393 452 32,000 98 Climbing Salt Lake Center
Sat 04:22:39 PM 39.3711 -112.2228 210° Southwest 387 445 32,000  Level Salt Lake Center
Sat 04:23:41 PM 39.2592 -112.3008 208° Southwest 380 437 32,000  Level Salt Lake Center
Sat 04:24:42 PM 39.1722 -112.3578 207° Southwest 388 447 32,000  Level Salt Lake Center
Sat 04:25:44 PM 39.0772 -112.4244 209° Southwest 389 448 32,000  Level Salt Lake Center
Sat 04:26:46 PM 38.9611 -112.5044 208° Southwest 395 455 32,000  Level Salt Lake Center
Sat 04:27:48 PM 38.8656 -112.5706 208° Southwest 392 451 32,000  Level Salt Lake Center
Sat 04:28:49 PM 38.7689 -112.6369 208° Southwest 393 452 32,000  Level Salt Lake Center
Sat 04:29:51 PM 38.6722 -112.7022 208° Southwest 394 453 32,000  Level Salt Lake Center
Sat 04:30:53 PM 38.5753 -112.7678 208° Southwest 395 455 32,000  Level Salt Lake Center
Sat 04:31:54 PM 38.4783 -112.8328 208° Southwest 394 453 32,000  Level Salt Lake Center
Sat 04:32:56 PM 38.3808 -112.8978 208° Southwest 396 456 32,000  Level Salt Lake Center
Sat 04:33:58 PM 38.2644 -112.9789 209° Southwest 398 458 32,000  Level Salt Lake Center
Sat 04:34:59 PM 38.1669 -113.0444 208° Southwest 397 457 32,000  Level Salt Lake Center
Sat 04:36:01 PM 38.0700 -113.1094 208° Southwest 397 457 32,000  Level Salt Lake Center
Sat 04:37:03 PM 37.9722 -113.1747 208° Southwest 399 459 32,000  Level Salt Lake Center
Sat 04:38:04 PM 37.8750 -113.2397 208° Southwest 399 459 32,000  Level Salt Lake Center
Sat 04:39:06 PM 37.7783 -113.3036 208° Southwest 396 456 32,000  Level Salt Lake Center
Sat 04:40:08 PM 37.6619 -113.3797 207° Southwest 395 455 32,000 -49 Level Salt Lake Center
Sat 04:41:09 PM 37.5653 -113.4444 208° Southwest 396 456 31,900 -537 Descending Salt Lake Center
Sat 04:42:11 PM 37.4689 -113.5044 206° Southwest 391 450 30,900 -1,016 Descending Salt Lake Center
Sat 04:43:13 PM 37.3761 -113.5661 208° Southwest 383 441 29,800 -1,024 Descending Salt Lake Center
Sat 04:44:14 PM 37.2850 -113.6258 208° Southwest 376 433 28,800 -976 Descending Salt Lake Center
Sat 04:45:16 PM 37.1944 -113.6842 207° Southwest 369 425 27,800 -1,069 Descending Salt Lake Center
Sat 04:45:55 PM 37.1225 -113.7314 208° Southwest 367 422 27,000 -1,059 Descending Los Angeles Center
Sat 04:46:58 PM 37.0336 -113.7889 207° Southwest 363 418 26,000 -1,016 Descending Los Angeles Center
Sat 04:47:59 PM 36.9461 -113.8461 208° Southwest 358 412 24,900 -976 Descending Los Angeles Center
Sat 04:49:01 PM 36.8578 -113.9014 207° Southwest 355 409 24,000 -919 Descending Los Angeles Center
Sat 04:50:03 PM 36.7717 -113.9564 207° Southwest 350 403 23,000 -1,790 Descending Los Angeles Center
Sat 04:51:05 PM 36.6653 -114.0303 209° Southwest 362 417 20,300 -2,274 Descending Los Angeles Center
Sat 04:52:07 PM 36.6067 -114.1303 234° Southwest 357 411 18,300 -1,887 Descending Los Angeles Center
Sat 04:53:09 PM 36.5489 -114.2256 233° Southwest 349 402 16,400 -1,887 Descending Los Angeles Center
Sat 04:54:11 PM 36.4822 -114.3128 226° Southwest 342 394 14,400 -2,000 Descending Los Angeles Center
Sat 04:54:42 PM 36.4472 -114.3600 227° Southwest 337 388 13,300 -1,839 Descending Los Angeles Center
Sat 04:55:13 PM 36.4192 -114.3964 226° Southwest 334 384 12,500 -1,180 Descending Los Angeles Center
Sat 04:55:43 PM 36.3939 -114.4506 240° Southwest 322 371 12,100 -484 Descending Los Angeles Center
Sat 04:56:15 PM 36.3681 -114.4825 225° Southwest 316 364 12,000 -64 Descending Los Angeles Center
Sat 04:57:17 PM 36.2872 -114.5056 193° South 293 337 12,000 -339 Level Los Angeles Center
Sat 04:58:19 PM 36.2508 -114.5744 237° Southwest 260 299 11,300 -968 Descending Los Angeles Center
Sat 04:59:21 PM 36.2206 -114.6719 249° West 253 291 10,000 -1,161 Descending Los Angeles Center
Sat 05:00:23 PM 36.1961 -114.7497 249° West 246 283 8,900 -1,191 Descending Los Angeles Center
Sat 05:01:42 PM 36.1661 -114.8481 249° West 228 262 7,200 -1,210 Descending Los Angeles Center
Sat 05:02:27 PM 36.1522 -114.8908 248° West 218 251 6,400 -617 Descending Los Angeles Center
Sat 05:03:29 PM 36.1336 -114.9519 249° West 198 228 6,100 -629 Descending Los Angeles Center
Sat 05:04:31 PM 36.1350 -115.0144 272° West 185 213 5,100 -1,210 Descending Los Angeles Center
Sat 05:05:33 PM 36.1406 -115.0881 275° West 181 208 3,600 -1,161 Descending Los Angeles Center
Sat 05:06:35 PM 36.1228 -115.1406 247° West 172 198 2,700 -726 Descending Los Angeles Center
Sat 05:07:37 PM 36.0853 -115.1611 204° Southwest 158 182 2,100 -581 Descending Los Angeles Center
Sat 05:09:00 PM 36.0801 -115.1523 219° Southwest  Level Estimated

Login

Don't have an account? Register now (free) for customized features, flight alerts, and more!